sensor_id;sensor_type;location;lat;lon;timestamp;P1;durP1;ratioP1;P2;durP2;ratioP2
7971;SDS011;4031;49.758;6.120;2022-12-26T00:01:10;4.67;;;3.23;;
7971;SDS011;4031;49.758;6.120;2022-12-26T00:03:37;3.80;;;3.17;;
7971;SDS011;4031;49.758;6.120;2022-12-26T00:06:03;5.70;;;2.97;;
7971;SDS011;4031;49.758;6.120;2022-12-26T00:08:29;4.07;;;2.53;;
7971;SDS011;4031;49.758;6.120;2022-12-26T00:10:55;3.33;;;3.03;;
7971;SDS011;4031;49.758;6.120;2022-12-26T00:13:20;3.70;;;2.90;;
7971;SDS011;4031;49.758;6.120;2022-12-26T00:15:47;5.63;;;3.40;;
7971;SDS011;4031;49.758;6.120;2022-12-26T00:18:13;3.10;;;2.80;;
7971;SDS011;4031;49.758;6.120;2022-12-26T00:20:38;2.83;;;2.40;;
7971;SDS011;4031;49.758;6.120;2022-12-26T00:23:04;3.30;;;2.80;;
7971;SDS011;4031;49.758;6.120;2022-12-26T00:25:31;2.70;;;2.40;;
7971;SDS011;4031;49.758;6.120;2022-12-26T00:27:58;3.30;;;2.60;;
7971;SDS011;4031;49.758;6.120;2022-12-26T00:30:24;3.30;;;2.43;;
7971;SDS011;4031;49.758;6.120;2022-12-26T00:32:49;2.90;;;2.60;;
7971;SDS011;4031;49.758;6.120;2022-12-26T00:35:15;2.83;;;2.30;;
7971;SDS011;4031;49.758;6.120;2022-12-26T00:37:41;4.20;;;2.90;;
7971;SDS011;4031;49.758;6.120;2022-12-26T00:40:07;4.03;;;3.27;;
7971;SDS011;4031;49.758;6.120;2022-12-26T00:42:33;2.97;;;2.27;;
7971;SDS011;4031;49.758;6.120;2022-12-26T00:44:59;4.07;;;2.30;;
7971;SDS011;4031;49.758;6.120;2022-12-26T00:47:25;2.50;;;2.30;;
7971;SDS011;4031;49.758;6.120;2022-12-26T00:49:50;4.83;;;2.70;;
7971;SDS011;4031;49.758;6.120;2022-12-26T00:52:16;3.90;;;2.33;;
7971;SDS011;4031;49.758;6.120;2022-12-26T00:54:42;2.17;;;1.93;;
7971;SDS011;4031;49.758;6.120;2022-12-26T00:57:07;5.43;;;2.43;;
7971;SDS011;4031;49.758;6.120;2022-12-26T00:59:33;3.77;;;3.20;;
7971;SDS011;4031;49.758;6.120;2022-12-26T01:01:59;3.53;;;2.80;;
7971;SDS011;4031;49.758;6.120;2022-12-26T01:04:24;2.50;;;2.30;;
7971;SDS011;4031;49.758;6.120;2022-12-26T01:06:52;2.93;;;2.73;;
7971;SDS011;4031;49.758;6.120;2022-12-26T01:09:17;3.23;;;2.90;;
7971;SDS011;4031;49.758;6.120;2022-12-26T01:11:43;2.83;;;2.20;;
7971;SDS011;4031;49.758;6.120;2022-12-26T01:14:13;3.90;;;2.53;;
7971;SDS011;4031;49.758;6.120;2022-12-26T01:16:42;4.87;;;2.40;;
7971;SDS011;4031;49.758;6.120;2022-12-26T01:19:10;2.70;;;2.50;;
7971;SDS011;4031;49.758;6.120;2022-12-26T01:21:37;3.43;;;2.20;;
7971;SDS011;4031;49.758;6.120;2022-12-26T01:24:03;4.67;;;2.83;;
7971;SDS011;4031;49.758;6.120;2022-12-26T01:26:30;3.27;;;2.77;;
7971;SDS011;4031;49.758;6.120;2022-12-26T01:28:56;5.40;;;3.27;;
7971;SDS011;4031;49.758;6.120;2022-12-26T01:31:22;3.53;;;2.50;;
7971;SDS011;4031;49.758;6.120;2022-12-26T01:33:48;2.73;;;2.33;;
7971;SDS011;4031;49.758;6.120;2022-12-26T01:36:14;3.90;;;2.80;;
7971;SDS011;4031;49.758;6.120;2022-12-26T01:38:41;2.27;;;2.03;;
7971;SDS011;4031;49.758;6.120;2022-12-26T01:41:08;4.60;;;2.40;;
7971;SDS011;4031;49.758;6.120;2022-12-26T01:46:18;3.10;;;2.50;;
7971;SDS011;4031;49.758;6.120;2022-12-26T01:48:51;2.40;;;2.20;;
7971;SDS011;4031;49.758;6.120;2022-12-26T01:51:19;3.87;;;2.30;;
7971;SDS011;4031;49.758;6.120;2022-12-26T01:53:49;3.63;;;2.50;;
7971;SDS011;4031;49.758;6.120;2022-12-26T01:56:20;4.47;;;2.77;;
7971;SDS011;4031;49.758;6.120;2022-12-26T01:59:02;2.67;;;2.47;;
7971;SDS011;4031;49.758;6.120;2022-12-26T02:01:33;5.20;;;3.30;;
7971;SDS011;4031;49.758;6.120;2022-12-26T02:04:04;4.30;;;2.57;;
7971;SDS011;4031;49.758;6.120;2022-12-26T02:06:52;4.23;;;2.37;;
7971;SDS011;4031;49.758;6.120;2022-12-26T02:09:18;3.03;;;2.47;;
7971;SDS011;4031;49.758;6.120;2022-12-26T02:11:52;3.40;;;2.77;;
7971;SDS011;4031;49.758;6.120;2022-12-26T02:14:48;5.67;;;2.40;;
7971;SDS011;4031;49.758;6.120;2022-12-26T02:17:15;3.30;;;2.87;;
7971;SDS011;4031;49.758;6.120;2022-12-26T02:31:37;2.53;;;2.30;;
7971;SDS011;4031;49.758;6.120;2022-12-26T02:34:25;4.83;;;2.40;;
7971;SDS011;4031;49.758;6.120;2022-12-26T02:42:58;3.63;;;2.50;;
7971;SDS011;4031;49.758;6.120;2022-12-26T02:54:53;6.90;;;2.30;;
7971;SDS011;4031;49.758;6.120;2022-12-26T02:57:50;7.37;;;2.47;;
7971;SDS011;4031;49.758;6.120;2022-12-26T03:00:45;3.33;;;2.97;;
7971;SDS011;4031;49.758;6.120;2022-12-26T03:03:35;4.20;;;3.40;;
7971;SDS011;4031;49.758;6.120;2022-12-26T03:06:26;3.20;;;2.50;;
7971;SDS011;4031;49.758;6.120;2022-12-26T03:09:23;4.70;;;2.33;;
7971;SDS011;4031;49.758;6.120;2022-12-26T03:15:08;5.23;;;2.90;;
7971;SDS011;4031;49.758;6.120;2022-12-26T03:17:39;3.20;;;2.10;;
7971;SDS011;4031;49.758;6.120;2022-12-26T03:20:15;7.00;;;2.90;;
7971;SDS011;4031;49.758;6.120;2022-12-26T03:22:50;3.47;;;3.03;;
7971;SDS011;4031;49.758;6.120;2022-12-26T03:28:33;4.73;;;2.70;;
7971;SDS011;4031;49.758;6.120;2022-12-26T03:30:59;4.33;;;2.87;;
7971;SDS011;4031;49.758;6.120;2022-12-26T03:33:31;3.07;;;2.27;;
7971;SDS011;4031;49.758;6.120;2022-12-26T03:42:27;5.33;;;3.20;;
7971;SDS011;4031;49.758;6.120;2022-12-26T03:48:29;3.00;;;2.80;;
7971;SDS011;4031;49.758;6.120;2022-12-26T03:51:46;5.20;;;2.53;;
7971;SDS011;4031;49.758;6.120;2022-12-26T03:57:54;4.40;;;2.90;;
7971;SDS011;4031;49.758;6.120;2022-12-26T04:01:04;3.70;;;2.30;;
7971;SDS011;4031;49.758;6.120;2022-12-26T04:03:53;7.70;;;3.00;;
7971;SDS011;4031;49.758;6.120;2022-12-26T04:06:44;5.63;;;2.70;;
7971;SDS011;4031;49.758;6.120;2022-12-26T04:09:40;7.47;;;2.83;;
7971;SDS011;4031;49.758;6.120;2022-12-26T04:12:34;8.03;;;2.40;;
7971;SDS011;4031;49.758;6.120;2022-12-26T04:15:23;8.97;;;2.63;;
7971;SDS011;4031;49.758;6.120;2022-12-26T04:18:24;4.00;;;2.50;;
7971;SDS011;4031;49.758;6.120;2022-12-26T04:21:25;3.23;;;2.83;;
7971;SDS011;4031;49.758;6.120;2022-12-26T04:24:28;10.20;;;3.30;;
7971;SDS011;4031;49.758;6.120;2022-12-26T04:27:18;4.20;;;2.70;;
7971;SDS011;4031;49.758;6.120;2022-12-26T04:30:04;5.00;;;2.60;;
7971;SDS011;4031;49.758;6.120;2022-12-26T04:32:49;5.87;;;1.80;;
7971;SDS011;4031;49.758;6.120;2022-12-26T04:35:46;3.80;;;2.90;;
7971;SDS011;4031;49.758;6.120;2022-12-26T04:38:42;3.40;;;2.40;;
7971;SDS011;4031;49.758;6.120;2022-12-26T04:41:31;2.90;;;2.40;;
7971;SDS011;4031;49.758;6.120;2022-12-26T04:44:17;2.80;;;2.50;;
7971;SDS011;4031;49.758;6.120;2022-12-26T04:46:48;8.57;;;1.97;;
7971;SDS011;4031;49.758;6.120;2022-12-26T04:49:16;5.93;;;1.80;;
7971;SDS011;4031;49.758;6.120;2022-12-26T04:52:02;2.93;;;2.30;;
7971;SDS011;4031;49.758;6.120;2022-12-26T04:54:32;5.90;;;2.10;;
7971;SDS011;4031;49.758;6.120;2022-12-26T04:56:58;4.10;;;2.30;;
7971;SDS011;4031;49.758;6.120;2022-12-26T04:59:24;5.00;;;2.50;;
7971;SDS011;4031;49.758;6.120;2022-12-26T05:01:50;3.40;;;1.90;;
7971;SDS011;4031;49.758;6.120;2022-12-26T05:04:34;2.80;;;2.20;;
7971;SDS011;4031;49.758;6.120;2022-12-26T05:07:19;4.83;;;2.33;;
7971;SDS011;4031;49.758;6.120;2022-12-26T05:10:09;4.10;;;2.37;;
7971;SDS011;4031;49.758;6.120;2022-12-26T05:12:41;4.00;;;2.57;;
7971;SDS011;4031;49.758;6.120;2022-12-26T05:15:07;3.30;;;2.20;;
7971;SDS011;4031;49.758;6.120;2022-12-26T05:17:33;3.07;;;2.23;;
7971;SDS011;4031;49.758;6.120;2022-12-26T05:20:18;3.20;;;2.60;;
7971;SDS011;4031;49.758;6.120;2022-12-26T05:23:02;2.23;;;2.03;;
7971;SDS011;4031;49.758;6.120;2022-12-26T05:25:47;2.97;;;2.07;;
7971;SDS011;4031;49.758;6.120;2022-12-26T05:28:32;3.10;;;2.43;;
7971;SDS011;4031;49.758;6.120;2022-12-26T05:31:16;3.20;;;2.10;;
7971;SDS011;4031;49.758;6.120;2022-12-26T05:33:42;3.17;;;2.07;;
7971;SDS011;4031;49.758;6.120;2022-12-26T05:36:28;4.57;;;2.17;;
7971;SDS011;4031;49.758;6.120;2022-12-26T05:39:02;2.83;;;1.87;;
7971;SDS011;4031;49.758;6.120;2022-12-26T05:41:28;2.57;;;1.70;;
7971;SDS011;4031;49.758;6.120;2022-12-26T05:43:54;5.33;;;2.00;;
7971;SDS011;4031;49.758;6.120;2022-12-26T05:46:19;2.37;;;1.60;;
7971;SDS011;4031;49.758;6.120;2022-12-26T05:48:45;3.43;;;1.43;;
7971;SDS011;4031;49.758;6.120;2022-12-26T05:51:11;2.10;;;1.50;;
7971;SDS011;4031;49.758;6.120;2022-12-26T05:53:37;2.20;;;1.50;;
7971;SDS011;4031;49.758;6.120;2022-12-26T05:56:08;3.73;;;1.37;;
7971;SDS011;4031;49.758;6.120;2022-12-26T05:58:37;5.23;;;1.60;;
7971;SDS011;4031;49.758;6.120;2022-12-26T06:01:07;3.57;;;1.40;;
7971;SDS011;4031;49.758;6.120;2022-12-26T06:03:36;8.23;;;1.77;;
7971;SDS011;4031;49.758;6.120;2022-12-26T06:06:03;2.10;;;1.40;;
7971;SDS011;4031;49.758;6.120;2022-12-26T06:08:30;1.83;;;1.63;;
7971;SDS011;4031;49.758;6.120;2022-12-26T06:10:56;3.13;;;1.60;;
7971;SDS011;4031;49.758;6.120;2022-12-26T06:13:21;4.60;;;2.00;;
7971;SDS011;4031;49.758;6.120;2022-12-26T06:15:48;2.10;;;1.40;;
7971;SDS011;4031;49.758;6.120;2022-12-26T06:18:13;3.37;;;2.10;;
7971;SDS011;4031;49.758;6.120;2022-12-26T06:20:39;3.23;;;1.80;;
7971;SDS011;4031;49.758;6.120;2022-12-26T06:23:05;3.30;;;2.03;;
7971;SDS011;4031;49.758;6.120;2022-12-26T06:25:30;2.40;;;2.20;;
7971;SDS011;4031;49.758;6.120;2022-12-26T06:27:56;2.53;;;1.70;;
7971;SDS011;4031;49.758;6.120;2022-12-26T06:30:22;5.33;;;2.07;;
7971;SDS011;4031;49.758;6.120;2022-12-26T06:32:48;5.03;;;2.30;;
7971;SDS011;4031;49.758;6.120;2022-12-26T06:35:14;2.83;;;1.90;;
7971;SDS011;4031;49.758;6.120;2022-12-26T06:37:39;3.63;;;2.10;;
7971;SDS011;4031;49.758;6.120;2022-12-26T06:40:05;5.00;;;2.13;;
7971;SDS011;4031;49.758;6.120;2022-12-26T06:42:32;2.40;;;1.63;;
7971;SDS011;4031;49.758;6.120;2022-12-26T06:44:57;3.80;;;2.40;;
7971;SDS011;4031;49.758;6.120;2022-12-26T06:47:23;2.30;;;1.77;;
7971;SDS011;4031;49.758;6.120;2022-12-26T06:49:49;3.83;;;2.00;;
7971;SDS011;4031;49.758;6.120;2022-12-26T06:52:14;1.53;;;1.27;;
7971;SDS011;4031;49.758;6.120;2022-12-26T06:54:40;3.07;;;1.90;;
7971;SDS011;4031;49.758;6.120;2022-12-26T06:57:06;5.00;;;2.07;;
7971;SDS011;4031;49.758;6.120;2022-12-26T06:59:32;3.20;;;2.03;;
7971;SDS011;4031;49.758;6.120;2022-12-26T07:01:57;4.30;;;2.03;;
7971;SDS011;4031;49.758;6.120;2022-12-26T07:04:23;4.33;;;1.73;;
7971;SDS011;4031;49.758;6.120;2022-12-26T07:06:49;3.70;;;1.90;;
7971;SDS011;4031;49.758;6.120;2022-12-26T07:09:16;5.70;;;1.97;;
7971;SDS011;4031;49.758;6.120;2022-12-26T07:11:44;4.27;;;2.03;;
7971;SDS011;4031;49.758;6.120;2022-12-26T07:14:12;3.07;;;2.00;;
7971;SDS011;4031;49.758;6.120;2022-12-26T07:16:40;2.80;;;1.97;;
7971;SDS011;4031;49.758;6.120;2022-12-26T07:19:08;3.47;;;1.60;;
7971;SDS011;4031;49.758;6.120;2022-12-26T07:21:36;8.13;;;1.77;;
7971;SDS011;4031;49.758;6.120;2022-12-26T07:24:02;2.37;;;1.40;;
7971;SDS011;4031;49.758;6.120;2022-12-26T07:26:28;5.07;;;2.20;;
7971;SDS011;4031;49.758;6.120;2022-12-26T07:28:54;5.00;;;1.90;;
7971;SDS011;4031;49.758;6.120;2022-12-26T07:31:21;1.83;;;1.50;;
7971;SDS011;4031;49.758;6.120;2022-12-26T07:33:48;1.53;;;1.43;;
7971;SDS011;4031;49.758;6.120;2022-12-26T07:36:15;2.60;;;1.67;;
7971;SDS011;4031;49.758;6.120;2022-12-26T07:38:41;2.60;;;1.83;;
7971;SDS011;4031;49.758;6.120;2022-12-26T07:41:07;1.93;;;1.70;;
7971;SDS011;4031;49.758;6.120;2022-12-26T07:43:53;5.30;;;1.63;;
7971;SDS011;4031;49.758;6.120;2022-12-26T07:46:19;2.30;;;1.20;;
7971;SDS011;4031;49.758;6.120;2022-12-26T07:48:45;1.27;;;1.17;;
7971;SDS011;4031;49.758;6.120;2022-12-26T07:51:11;2.40;;;1.10;;
7971;SDS011;4031;49.758;6.120;2022-12-26T07:53:36;2.50;;;1.93;;
7971;SDS011;4031;49.758;6.120;2022-12-26T07:56:02;1.87;;;1.77;;
7971;SDS011;4031;49.758;6.120;2022-12-26T07:58:28;1.90;;;1.50;;
7971;SDS011;4031;49.758;6.120;2022-12-26T08:00:54;2.73;;;1.57;;
7971;SDS011;4031;49.758;6.120;2022-12-26T08:03:20;1.37;;;1.00;;
7971;SDS011;4031;49.758;6.120;2022-12-26T08:05:49;3.70;;;1.70;;
7971;SDS011;4031;49.758;6.120;2022-12-26T08:08:15;2.03;;;1.40;;
7971;SDS011;4031;49.758;6.120;2022-12-26T08:10:41;3.50;;;1.53;;
7971;SDS011;4031;49.758;6.120;2022-12-26T08:13:07;1.83;;;1.37;;
7971;SDS011;4031;49.758;6.120;2022-12-26T08:15:33;1.47;;;1.37;;
7971;SDS011;4031;49.758;6.120;2022-12-26T08:18:02;2.13;;;1.13;;
7971;SDS011;4031;49.758;6.120;2022-12-26T08:20:28;2.20;;;1.40;;
7971;SDS011;4031;49.758;6.120;2022-12-26T08:22:53;1.80;;;1.37;;
7971;SDS011;4031;49.758;6.120;2022-12-26T08:25:19;5.37;;;1.27;;
7971;SDS011;4031;49.758;6.120;2022-12-26T08:27:45;4.20;;;1.57;;
7971;SDS011;4031;49.758;6.120;2022-12-26T08:30:10;1.77;;;1.53;;
7971;SDS011;4031;49.758;6.120;2022-12-26T08:32:36;0.80;;;0.77;;
7971;SDS011;4031;49.758;6.120;2022-12-26T08:35:02;2.90;;;1.47;;
7971;SDS011;4031;49.758;6.120;2022-12-26T08:37:28;1.30;;;0.97;;
7971;SDS011;4031;49.758;6.120;2022-12-26T08:39:54;1.40;;;1.20;;
7971;SDS011;4031;49.758;6.120;2022-12-26T08:42:20;1.20;;;1.00;;
7971;SDS011;4031;49.758;6.120;2022-12-26T08:44:46;1.17;;;0.70;;
7971;SDS011;4031;49.758;6.120;2022-12-26T08:47:12;1.50;;;1.23;;
7971;SDS011;4031;49.758;6.120;2022-12-26T08:49:39;1.90;;;1.63;;
7971;SDS011;4031;49.758;6.120;2022-12-26T08:52:05;3.27;;;1.37;;
7971;SDS011;4031;49.758;6.120;2022-12-26T08:54:31;2.00;;;1.73;;
7971;SDS011;4031;49.758;6.120;2022-12-26T08:56:57;2.70;;;1.40;;
7971;SDS011;4031;49.758;6.120;2022-12-26T08:59:24;1.07;;;0.83;;
7971;SDS011;4031;49.758;6.120;2022-12-26T09:01:50;3.10;;;1.27;;
7971;SDS011;4031;49.758;6.120;2022-12-26T09:04:16;1.40;;;1.30;;
7971;SDS011;4031;49.758;6.120;2022-12-26T09:06:42;2.67;;;1.57;;
7971;SDS011;4031;49.758;6.120;2022-12-26T09:09:08;7.60;;;1.60;;
7971;SDS011;4031;49.758;6.120;2022-12-26T09:11:35;1.37;;;0.93;;
7971;SDS011;4031;49.758;6.120;2022-12-26T09:14:02;1.30;;;1.17;;
7971;SDS011;4031;49.758;6.120;2022-12-26T09:16:30;1.90;;;1.33;;
7971;SDS011;4031;49.758;6.120;2022-12-26T09:19:01;1.50;;;1.10;;
7971;SDS011;4031;49.758;6.120;2022-12-26T09:21:28;1.80;;;1.30;;
7971;SDS011;4031;49.758;6.120;2022-12-26T09:23:59;1.90;;;1.30;;
7971;SDS011;4031;49.758;6.120;2022-12-26T09:26:27;1.40;;;1.30;;
7971;SDS011;4031;49.758;6.120;2022-12-26T09:28:54;1.40;;;1.30;;
7971;SDS011;4031;49.758;6.120;2022-12-26T09:31:21;2.97;;;1.23;;
7971;SDS011;4031;49.758;6.120;2022-12-26T09:33:51;5.43;;;1.00;;
7971;SDS011;4031;49.758;6.120;2022-12-26T09:36:24;2.27;;;1.50;;
7971;SDS011;4031;49.758;6.120;2022-12-26T09:38:56;3.90;;;1.60;;
7971;SDS011;4031;49.758;6.120;2022-12-26T09:44:15;1.67;;;0.63;;
7971;SDS011;4031;49.758;6.120;2022-12-26T09:47:12;2.30;;;1.23;;
7971;SDS011;4031;49.758;6.120;2022-12-26T09:52:46;1.20;;;1.10;;
7971;SDS011;4031;49.758;6.120;2022-12-26T10:03:39;1.97;;;1.20;;
7971;SDS011;4031;49.758;6.120;2022-12-26T10:06:16;1.87;;;1.20;;
7971;SDS011;4031;49.758;6.120;2022-12-26T10:12:29;1.47;;;1.10;;
7971;SDS011;4031;49.758;6.120;2022-12-26T10:17:43;2.30;;;1.00;;
7971;SDS011;4031;49.758;6.120;2022-12-26T10:20:14;1.23;;;1.10;;
7971;SDS011;4031;49.758;6.120;2022-12-26T10:23:07;1.97;;;1.00;;
7971;SDS011;4031;49.758;6.120;2022-12-26T10:28:38;1.80;;;1.23;;
7971;SDS011;4031;49.758;6.120;2022-12-26T10:31:19;1.83;;;1.10;;
7971;SDS011;4031;49.758;6.120;2022-12-26T10:36:49;3.40;;;1.10;;
7971;SDS011;4031;49.758;6.120;2022-12-26T10:42:28;2.20;;;1.33;;
7971;SDS011;4031;49.758;6.120;2022-12-26T10:45:01;0.97;;;0.97;;
7971;SDS011;4031;49.758;6.120;2022-12-26T10:47:42;2.20;;;1.53;;
7971;SDS011;4031;49.758;6.120;2022-12-26T10:50:18;2.80;;;1.00;;
7971;SDS011;4031;49.758;6.120;2022-12-26T10:52:56;3.07;;;1.47;;
7971;SDS011;4031;49.758;6.120;2022-12-26T10:55:33;1.53;;;1.33;;
7971;SDS011;4031;49.758;6.120;2022-12-26T10:58:02;1.37;;;1.00;;
7971;SDS011;4031;49.758;6.120;2022-12-26T11:00:45;2.40;;;1.20;;
7971;SDS011;4031;49.758;6.120;2022-12-26T11:03:12;2.40;;;1.10;;
7971;SDS011;4031;49.758;6.120;2022-12-26T11:05:50;1.80;;;1.17;;
7971;SDS011;4031;49.758;6.120;2022-12-26T11:08:34;1.73;;;1.03;;
7971;SDS011;4031;49.758;6.120;2022-12-26T11:13:54;1.57;;;0.83;;
7971;SDS011;4031;49.758;6.120;2022-12-26T11:16:41;2.30;;;1.57;;
7971;SDS011;4031;49.758;6.120;2022-12-26T11:19:23;2.33;;;1.20;;
7971;SDS011;4031;49.758;6.120;2022-12-26T11:21:51;1.97;;;1.40;;
7971;SDS011;4031;49.758;6.120;2022-12-26T11:24:18;2.90;;;1.03;;
7971;SDS011;4031;49.758;6.120;2022-12-26T11:26:44;3.87;;;1.00;;
7971;SDS011;4031;49.758;6.120;2022-12-26T11:29:18;3.37;;;1.17;;
7971;SDS011;4031;49.758;6.120;2022-12-26T11:32:01;1.20;;;1.07;;
7971;SDS011;4031;49.758;6.120;2022-12-26T11:34:38;1.30;;;1.10;;
7971;SDS011;4031;49.758;6.120;2022-12-26T11:37:44;1.20;;;1.10;;
7971;SDS011;4031;49.758;6.120;2022-12-26T11:40:14;3.43;;;0.90;;
7971;SDS011;4031;49.758;6.120;2022-12-26T11:42:49;1.73;;;0.90;;
7971;SDS011;4031;49.758;6.120;2022-12-26T11:45:21;2.80;;;1.00;;
7971;SDS011;4031;49.758;6.120;2022-12-26T11:47:50;2.87;;;1.13;;
7971;SDS011;4031;49.758;6.120;2022-12-26T11:50:20;2.63;;;1.07;;
7971;SDS011;4031;49.758;6.120;2022-12-26T12:03:02;3.57;;;1.40;;
7971;SDS011;4031;49.758;6.120;2022-12-26T12:05:53;4.57;;;1.80;;
7971;SDS011;4031;49.758;6.120;2022-12-26T12:14:44;2.07;;;1.30;;
7971;SDS011;4031;49.758;6.120;2022-12-26T12:31:49;3.13;;;1.30;;
7971;SDS011;4031;49.758;6.120;2022-12-26T12:40:31;1.77;;;1.10;;
7971;SDS011;4031;49.758;6.120;2022-12-26T12:43:39;3.43;;;1.57;;
7971;SDS011;4031;49.758;6.120;2022-12-26T12:49:20;1.50;;;1.07;;
7971;SDS011;4031;49.758;6.120;2022-12-26T13:01:01;1.33;;;1.23;;
7971;SDS011;4031;49.758;6.120;2022-12-26T13:03:57;1.47;;;1.33;;
7971;SDS011;4031;49.758;6.120;2022-12-26T13:06:41;1.20;;;0.83;;
7971;SDS011;4031;49.758;6.120;2022-12-26T13:09:16;2.27;;;1.00;;
7971;SDS011;4031;49.758;6.120;2022-12-26T13:11:51;2.93;;;1.00;;
7971;SDS011;4031;49.758;6.120;2022-12-26T13:14:39;1.00;;;0.90;;
7971;SDS011;4031;49.758;6.120;2022-12-26T13:17:10;1.53;;;0.97;;
7971;SDS011;4031;49.758;6.120;2022-12-26T13:19:44;1.10;;;1.00;;
7971;SDS011;4031;49.758;6.120;2022-12-26T13:22:37;1.20;;;0.90;;
7971;SDS011;4031;49.758;6.120;2022-12-26T13:25:27;2.40;;;1.10;;
7971;SDS011;4031;49.758;6.120;2022-12-26T13:28:02;2.43;;;1.00;;
7971;SDS011;4031;49.758;6.120;2022-12-26T13:30:42;1.07;;;1.07;;
7971;SDS011;4031;49.758;6.120;2022-12-26T13:33:11;1.20;;;0.70;;
7971;SDS011;4031;49.758;6.120;2022-12-26T13:38:25;2.50;;;1.10;;
7971;SDS011;4031;49.758;6.120;2022-12-26T13:41:22;1.57;;;1.20;;
7971;SDS011;4031;49.758;6.120;2022-12-26T13:49:28;2.30;;;0.90;;
7971;SDS011;4031;49.758;6.120;2022-12-26T14:00:15;2.43;;;1.93;;
7971;SDS011;4031;49.758;6.120;2022-12-26T14:05:46;4.10;;;1.50;;
7971;SDS011;4031;49.758;6.120;2022-12-26T14:14:37;2.00;;;1.00;;
7971;SDS011;4031;49.758;6.120;2022-12-26T14:17:25;5.43;;;1.27;;
7971;SDS011;4031;49.758;6.120;2022-12-26T14:20:32;0.70;;;0.70;;
7971;SDS011;4031;49.758;6.120;2022-12-26T14:23:26;1.23;;;0.90;;
7971;SDS011;4031;49.758;6.120;2022-12-26T14:32:05;3.93;;;1.00;;
7971;SDS011;4031;49.758;6.120;2022-12-26T14:35:01;0.60;;;0.60;;
7971;SDS011;4031;49.758;6.120;2022-12-26T14:41:07;1.70;;;0.83;;
7971;SDS011;4031;49.758;6.120;2022-12-26T14:43:56;1.00;;;0.70;;
7971;SDS011;4031;49.758;6.120;2022-12-26T14:51:49;2.40;;;0.93;;
7971;SDS011;4031;49.758;6.120;2022-12-26T14:54:32;0.97;;;0.70;;
7971;SDS011;4031;49.758;6.120;2022-12-26T14:57:34;1.00;;;0.60;;
7971;SDS011;4031;49.758;6.120;2022-12-26T15:00:23;0.50;;;0.47;;
7971;SDS011;4031;49.758;6.120;2022-12-26T15:05:25;0.90;;;0.50;;
7971;SDS011;4031;49.758;6.120;2022-12-26T15:08:19;1.27;;;0.80;;
7971;SDS011;4031;49.758;6.120;2022-12-26T15:14:30;1.87;;;0.80;;
7971;SDS011;4031;49.758;6.120;2022-12-26T15:18:12;0.57;;;0.50;;
7971;SDS011;4031;49.758;6.120;2022-12-26T15:23:43;2.00;;;0.50;;
7971;SDS011;4031;49.758;6.120;2022-12-26T15:38:20;0.80;;;0.60;;
7971;SDS011;4031;49.758;6.120;2022-12-26T15:41:13;0.60;;;0.50;;
7971;SDS011;4031;49.758;6.120;2022-12-26T15:47:04;0.70;;;0.60;;
7971;SDS011;4031;49.758;6.120;2022-12-26T15:55:50;1.80;;;0.47;;
7971;SDS011;4031;49.758;6.120;2022-12-26T16:01:32;0.87;;;0.70;;
7971;SDS011;4031;49.758;6.120;2022-12-26T16:04:06;1.67;;;0.67;;
7971;SDS011;4031;49.758;6.120;2022-12-26T16:09:58;1.80;;;0.73;;
7971;SDS011;4031;49.758;6.120;2022-12-26T16:12:28;1.47;;;0.70;;
7971;SDS011;4031;49.758;6.120;2022-12-26T16:17:34;1.07;;;0.80;;
7971;SDS011;4031;49.758;6.120;2022-12-26T16:23:11;3.57;;;0.97;;
7971;SDS011;4031;49.758;6.120;2022-12-26T16:25:45;1.10;;;0.80;;
7971;SDS011;4031;49.758;6.120;2022-12-26T16:28:13;3.70;;;1.00;;
7971;SDS011;4031;49.758;6.120;2022-12-26T16:30:39;0.90;;;0.80;;
7971;SDS011;4031;49.758;6.120;2022-12-26T16:33:05;1.13;;;1.03;;
7971;SDS011;4031;49.758;6.120;2022-12-26T16:35:32;0.93;;;0.83;;
7971;SDS011;4031;49.758;6.120;2022-12-26T16:38:01;1.30;;;1.20;;
7971;SDS011;4031;49.758;6.120;2022-12-26T16:40:32;2.83;;;1.37;;
7971;SDS011;4031;49.758;6.120;2022-12-26T16:43:05;1.27;;;1.03;;
7971;SDS011;4031;49.758;6.120;2022-12-26T16:45:44;1.20;;;1.00;;
7971;SDS011;4031;49.758;6.120;2022-12-26T16:48:14;2.63;;;1.10;;
7971;SDS011;4031;49.758;6.120;2022-12-26T16:54:27;3.30;;;1.67;;
7971;SDS011;4031;49.758;6.120;2022-12-26T16:57:06;5.50;;;1.83;;
7971;SDS011;4031;49.758;6.120;2022-12-26T17:02:26;1.27;;;1.10;;
7971;SDS011;4031;49.758;6.120;2022-12-26T17:05:07;2.13;;;1.30;;
7971;SDS011;4031;49.758;6.120;2022-12-26T17:07:53;2.10;;;1.67;;
7971;SDS011;4031;49.758;6.120;2022-12-26T17:10:25;2.20;;;1.60;;
7971;SDS011;4031;49.758;6.120;2022-12-26T17:13:02;3.77;;;1.90;;
7971;SDS011;4031;49.758;6.120;2022-12-26T17:15:35;2.20;;;1.60;;
7971;SDS011;4031;49.758;6.120;2022-12-26T17:18:28;4.60;;;2.23;;
7971;SDS011;4031;49.758;6.120;2022-12-26T17:21:00;1.90;;;1.43;;
7971;SDS011;4031;49.758;6.120;2022-12-26T17:26:47;2.10;;;1.20;;
7971;SDS011;4031;49.758;6.120;2022-12-26T17:29:50;1.40;;;1.30;;
7971;SDS011;4031;49.758;6.120;2022-12-26T17:32:40;0.80;;;0.77;;
7971;SDS011;4031;49.758;6.120;2022-12-26T17:37:44;0.97;;;0.87;;
7971;SDS011;4031;49.758;6.120;2022-12-26T17:42:42;1.27;;;0.97;;
7971;SDS011;4031;49.758;6.120;2022-12-26T17:45:13;4.20;;;1.40;;
7971;SDS011;4031;49.758;6.120;2022-12-26T17:47:50;2.13;;;1.50;;
7971;SDS011;4031;49.758;6.120;2022-12-26T17:50:18;2.70;;;1.53;;
7971;SDS011;4031;49.758;6.120;2022-12-26T17:52:45;1.83;;;0.80;;
7971;SDS011;4031;49.758;6.120;2022-12-26T17:55:18;1.47;;;0.90;;
7971;SDS011;4031;49.758;6.120;2022-12-26T17:57:50;1.27;;;0.70;;
7971;SDS011;4031;49.758;6.120;2022-12-26T18:00:17;2.33;;;0.70;;
7971;SDS011;4031;49.758;6.120;2022-12-26T18:02:46;4.90;;;2.47;;
7971;SDS011;4031;49.758;6.120;2022-12-26T18:05:13;4.63;;;1.20;;
7971;SDS011;4031;49.758;6.120;2022-12-26T18:07:39;1.57;;;1.13;;
7971;SDS011;4031;49.758;6.120;2022-12-26T18:10:08;1.33;;;0.93;;
7971;SDS011;4031;49.758;6.120;2022-12-26T18:12:50;2.10;;;1.00;;
7971;SDS011;4031;49.758;6.120;2022-12-26T18:15:16;1.77;;;1.03;;
7971;SDS011;4031;49.758;6.120;2022-12-26T18:17:42;1.40;;;0.93;;
7971;SDS011;4031;49.758;6.120;2022-12-26T18:20:14;2.50;;;1.17;;
7971;SDS011;4031;49.758;6.120;2022-12-26T18:22:54;1.43;;;1.03;;
7971;SDS011;4031;49.758;6.120;2022-12-26T18:25:21;1.20;;;1.10;;
7971;SDS011;4031;49.758;6.120;2022-12-26T18:27:49;2.70;;;1.40;;
7971;SDS011;4031;49.758;6.120;2022-12-26T18:30:19;4.40;;;1.93;;
7971;SDS011;4031;49.758;6.120;2022-12-26T18:32:48;2.90;;;2.03;;
7971;SDS011;4031;49.758;6.120;2022-12-26T18:35:16;1.53;;;1.30;;
7971;SDS011;4031;49.758;6.120;2022-12-26T18:37:43;1.47;;;1.30;;
7971;SDS011;4031;49.758;6.120;2022-12-26T18:43:04;2.30;;;1.53;;
7971;SDS011;4031;49.758;6.120;2022-12-26T18:45:31;3.17;;;1.20;;
7971;SDS011;4031;49.758;6.120;2022-12-26T18:47:59;3.43;;;1.50;;
7971;SDS011;4031;49.758;6.120;2022-12-26T18:50:26;1.93;;;1.57;;
7971;SDS011;4031;49.758;6.120;2022-12-26T18:52:53;4.63;;;1.40;;
7971;SDS011;4031;49.758;6.120;2022-12-26T18:55:20;2.93;;;1.73;;
7971;SDS011;4031;49.758;6.120;2022-12-26T18:57:47;1.90;;;1.50;;
7971;SDS011;4031;49.758;6.120;2022-12-26T19:00:13;3.43;;;2.23;;
7971;SDS011;4031;49.758;6.120;2022-12-26T19:02:41;3.87;;;1.43;;
7971;SDS011;4031;49.758;6.120;2022-12-26T19:05:21;3.17;;;1.80;;
7971;SDS011;4031;49.758;6.120;2022-12-26T19:07:51;9.23;;;1.60;;
7971;SDS011;4031;49.758;6.120;2022-12-26T19:10:19;5.23;;;1.97;;
7971;SDS011;4031;49.758;6.120;2022-12-26T19:12:48;3.50;;;2.10;;
7971;SDS011;4031;49.758;6.120;2022-12-26T19:15:14;2.37;;;1.83;;
7971;SDS011;4031;49.758;6.120;2022-12-26T19:17:40;3.27;;;1.10;;
7971;SDS011;4031;49.758;6.120;2022-12-26T19:20:08;1.83;;;1.10;;
7971;SDS011;4031;49.758;6.120;2022-12-26T19:22:46;1.97;;;1.30;;
7971;SDS011;4031;49.758;6.120;2022-12-26T19:25:13;1.47;;;0.90;;
7971;SDS011;4031;49.758;6.120;2022-12-26T19:27:40;3.07;;;1.33;;
7971;SDS011;4031;49.758;6.120;2022-12-26T19:30:06;1.40;;;1.20;;
7971;SDS011;4031;49.758;6.120;2022-12-26T19:32:33;2.10;;;0.97;;
7971;SDS011;4031;49.758;6.120;2022-12-26T19:34:58;2.37;;;1.70;;
7971;SDS011;4031;49.758;6.120;2022-12-26T19:37:24;1.20;;;1.10;;
7971;SDS011;4031;49.758;6.120;2022-12-26T19:39:50;1.60;;;1.50;;
7971;SDS011;4031;49.758;6.120;2022-12-26T19:42:16;3.63;;;1.50;;
7971;SDS011;4031;49.758;6.120;2022-12-26T19:44:42;3.50;;;2.03;;